(°C)
-1°
-1°
-2°
-2°
-1°
(°C)
-7°
-7°
-8°
-8°
-8°
-8°
-7°
ONO
ONO
ONO
ONO
O
O
O
(km/h)
22-41
20-39
19-37
17-34
16-31
15-29
17-31
(mm)
0
0
0
0
0
0
0
(%)
2
1
1
1
0
0
0

Elevação do sol

/ -59.2°
sun-icon
UV 1
07:18
17:06
Minguante gibosa (187°)
17:42
08:07

METAR para Wilmington Manor (KILG)

Hora Condições Temperatura/
Ponto de condensação
Vento Visibilidade Tempo Nuvens Pressão Mudança Bruto
VFR 1.1°C / -7.2°C 290º 12kt >10km - Overcast 4400ft 1005 - KILG 180651Z AUTO 29012KT 10SM OVC044 01/M07 A2968 RMK AO2 SLP050 T00111072 $
VFR 0.6°C / -8.9°C 290º 20kt Gust 24kt >10km - Clear 1003 - KILG 180551Z AUTO 29020G24KT 10SM CLR 01/M09 A2964 RMK AO2 PK WND 29028/0523 SLP037 T00061089 10017 20006 51038 $
VFR 1.1°C / -8.9°C 290º 17kt Gust 29kt >10km - Clear 1002 - KILG 180451Z AUTO 29017G29KT 10SM CLR 01/M09 A2961 RMK AO2 PK WND 30031/0401 PRESRR SLP028 T00111089 400940006 $
VFR 1.1°C / -7.2°C 280º 17kt Gust 28kt >10km - Broken Clouds 4900ft 1001 - KILG 180351Z AUTO 28017G28KT 10SM BKN049 01/M07 A2957 RMK AO2 PK WND 29031/0341 SLP013 T00111072 $
VFR 1.7°C / -6.1°C 280º 15kt Gust 24kt >10km - Overcast 4700ft 999 - KILG 180251Z 28015G24KT 10SM OVC047 02/M06 A2953 RMK AO2 SLP999 T00171061 53032 $
VFR 1.1°C / -6.1°C 280º 16kt Gust 21kt >10km - Broken Clouds 4200ft
Overcast 8500ft
998 - KILG 180151Z 28016G21KT 10SM BKN042 OVC085 01/M06 A2949 RMK AO2 PK WND 28028/0057 SLP988 T00111061 $
VFR 1.1°C / -6.7°C 280º 20kt Gust 27kt >10km - Overcast 4500ft 997 - KILG 180051Z 28020G27KT 10SM OVC045 01/M07 A2946 RMK AO2 PK WND 29031/0009 SLP978 T00111067 $
VFR 1.1°C / -6.7°C 280º 19kt Gust 32kt >10km - Few Clouds 3900ft
Broken Clouds 8000ft
Overcast 11000ft
996 - KILG 172351Z 28019G32KT 10SM FEW039 BKN080 OVC110 01/M07 A2943 RMK AO2 PK WND 28032/2351 SLP967 60010 T00111067 10033 20011 53050 $
VFR 1.7°C / -6.1°C 270º 15kt Gust 25kt >10km - Broken Clouds 4300ft
Overcast 5000ft
994 - KILG 172251Z 27015G25KT 10SM BKN043 OVC050 02/M06 A2938 RMK AO2 PK WND 28028/2155 SLP949 T00171061 $
VFR 2.2°C / -5.6°C 270º 17kt Gust 30kt >10km 0.25mm precipitation Scattered Clouds 4100ft
Broken Clouds 4900ft
Overcast 6000ft
993 - KILG 172151Z 27017G30KT 10SM SCT041 BKN049 OVC060 02/M06 A2933 RMK AO2 PK WND 27030/2148 SLP933 P0001 T00221056 $
VFR 2.8°C / -5.6°C 270º 15kt Gust 31kt >10km 1.27mm precipitation Few Clouds 3600ft
Overcast 4600ft
991 - KILG 172051Z 27015G31KT 10SM FEW036 OVC046 03/M06 A2928 RMK AO2 PK WND 25034/2041 SNE00B19E38 SLP917 P0005 60009 T00281056 51030 $
VFR 2.2°C / -3.3°C 240º 17kt Gust 27kt 9700m Light Snow 0.76mm precipitation Overcast 4500ft 990 - KILG 171951Z 24017G27KT 6SM -SN OVC045 02/M03 A2926 RMK AO2 PK WND 25029/1936 RAE1857B37E38SNB38 SLP908 P0003 T00221033 $
VFR 2.8°C / -3.9°C 250º 15kt Gust 28kt >10km Light Rain 0.25mm precipitation Broken Clouds 3900ft
Overcast 4700ft
989 - KILG 171851Z 25015G28KT 10SM -RA BKN039 OVC047 03/M04 A2922 RMK AO2 PK WND 27028/1846 RAB48 SLP894 P0001 T00281039 $
VFR 3.3°C / -3.9°C 250º 25kt Gust 32kt >10km - Broken Clouds 4000ft
Overcast 6000ft
988 - KILG 171751Z 25025G32KT 10SM BKN040 OVC060 03/M04 A2920 RMK AO2 PK WND 25032/1751 SLP886 60006 I6000 T00331039 10039 20017 51012 $
VFR 2.8°C / -3.3°C 240º 15kt Gust 25kt >10km - Few Clouds 3500ft
Overcast 4800ft
988 - KILG 171651Z 24015G25KT 10SM FEW035 OVC048 03/M03 A2919 RMK AO2 SLP885 T00281033 $
VFR 3.3°C / -1.7°C 250º 18kt Gust 23kt >10km - Few Clouds 2900ft
Overcast 4000ft
988 - KILG 171551Z 25018G23KT 10SM FEW029 OVC040 03/M02 A2918 RMK AO2 PK WND 25026/1506 SLP883 T00331017 $
VFR 2.8°C / -1.7°C 250º 15kt Gust 24kt >10km - Scattered Clouds 2900ft
Overcast 3800ft
- KILG 171539Z 25015G24KT 10SM SCT029 OVC038 03/M02 A2917 RMK AO2 PK WND 25026/1506 T00281017 $
MVFR 2.2°C / -1.1°C 240º 10kt Gust 25kt >10km - Overcast 2200ft 987 - KILG 171451Z 24010G25KT 10SM OVC022 02/M01 A2916 RMK AO2 PK WND 22027/1440 SLP875 60006 I3000 T00221011 52008 $
MVFR 1.7°C / -0.6°C 220º 12kt Gust 21kt >10km - Few Clouds 1000ft
Overcast 1600ft
- KILG 171358Z 22012G21KT 10SM FEW010 OVC016 02/M01 A2915 RMK AO2 T00171006 $
IFR 1.7°C / 0°C 220º variable 007º to 013º 14kt Gust 21kt >10km 0.76mm precipitation Broken Clouds 900ft
Overcast 1400ft
987 - KILG 171351Z 22014G21KT 10SM BKN009 OVC014 02/00 A2915 RMK AO2 UPB1254E00B09E14B27E31SNB00E09B14E27 CIG 007V013 SLP871 P0003 I1000 T00170000 $
IFR 1.7°C / 0°C 210º 14kt Gust 20kt 8000m Mist 0.76mm precipitation Broken Clouds 900ft
Overcast 1300ft
- KILG 171333Z 21014G20KT 5SM BR BKN009 OVC013 02/00 A2915 RMK AO2 UPB1254E00B09E14B27E31SNB00E09B14E27 P0003 I1000 T00170000 $
MVFR 1.7°C / -0.6°C 220º 15kt Gust 22kt 6400m Light Snow Mist 0.51mm precipitation Broken Clouds 1100ft
Overcast 1800ft
- KILG 171316Z 22015G22KT 4SM -SN BR BKN011 OVC018 02/M01 A2916 RMK AO2 UPB1254E00B09E14SNB00E09B14 P0002 I1000 T00171006 $
IFR 1.7°C / 0°C 200º variable 007º to 013º 12kt Gust 20kt 8000m Light Snow Mist 0.25mm precipitation Broken Clouds 900ft
Overcast 1500ft
- KILG 171307Z 20012G20KT 5SM -SN BR BKN009 OVC015 02/00 A2915 RMK AO2 UPB1254E00SNB00 CIG 007V013 P0001 I1000 T00170000 $
MVFR 1.7°C / 0°C 210º 11kt Gust 19kt >10km 0.76mm precipitation Scattered Clouds 900ft
Broken Clouds 1400ft
Overcast 3000ft
986 - KILG 171251Z 21011G19KT 10SM SCT009 BKN014 OVC030 02/00 A2914 RMK AO2 RAE33UPB26E45 SLP866 P0003 T00170000 $

VFR

1.1°C / -7.2°C

[Mais]
Vento 290º 12kt
Visibilidade >10km
Tempo -
Nuvens Overcast 4400ft
Pressão 1005
Mudança -
Bruto KILG 180651Z AUTO 29012KT 10SM OVC044 01/M07 A2968 RMK AO2 SLP050 T00111072 $

VFR

0.6°C / -8.9°C

[Mais]
Vento 290º 20kt Gust 24kt
Visibilidade >10km
Tempo -
Nuvens Clear
Pressão 1003
Mudança -
Bruto KILG 180551Z AUTO 29020G24KT 10SM CLR 01/M09 A2964 RMK AO2 PK WND 29028/0523 SLP037 T00061089 10017 20006 51038 $

VFR

1.1°C / -8.9°C

[Mais]
Vento 290º 17kt Gust 29kt
Visibilidade >10km
Tempo -
Nuvens Clear
Pressão 1002
Mudança -
Bruto KILG 180451Z AUTO 29017G29KT 10SM CLR 01/M09 A2961 RMK AO2 PK WND 30031/0401 PRESRR SLP028 T00111089 400940006 $

VFR

1.1°C / -7.2°C

[Mais]
Vento 280º 17kt Gust 28kt
Visibilidade >10km
Tempo -
Nuvens Broken Clouds 4900ft
Pressão 1001
Mudança -
Bruto KILG 180351Z AUTO 28017G28KT 10SM BKN049 01/M07 A2957 RMK AO2 PK WND 29031/0341 SLP013 T00111072 $

VFR

1.7°C / -6.1°C

[Mais]
Vento 280º 15kt Gust 24kt
Visibilidade >10km
Tempo -
Nuvens Overcast 4700ft
Pressão 999
Mudança -
Bruto KILG 180251Z 28015G24KT 10SM OVC047 02/M06 A2953 RMK AO2 SLP999 T00171061 53032 $

VFR

1.1°C / -6.1°C

[Mais]
Vento 280º 16kt Gust 21kt
Visibilidade >10km
Tempo -
Nuvens Broken Clouds 4200ft
Overcast 8500ft
Pressão 998
Mudança -
Bruto KILG 180151Z 28016G21KT 10SM BKN042 OVC085 01/M06 A2949 RMK AO2 PK WND 28028/0057 SLP988 T00111061 $

VFR

1.1°C / -6.7°C

[Mais]
Vento 280º 20kt Gust 27kt
Visibilidade >10km
Tempo -
Nuvens Overcast 4500ft
Pressão 997
Mudança -
Bruto KILG 180051Z 28020G27KT 10SM OVC045 01/M07 A2946 RMK AO2 PK WND 29031/0009 SLP978 T00111067 $

VFR

1.1°C / -6.7°C

[Mais]
Vento 280º 19kt Gust 32kt
Visibilidade >10km
Tempo -
Nuvens Few Clouds 3900ft
Broken Clouds 8000ft
Overcast 11000ft
Pressão 996
Mudança -
Bruto KILG 172351Z 28019G32KT 10SM FEW039 BKN080 OVC110 01/M07 A2943 RMK AO2 PK WND 28032/2351 SLP967 60010 T00111067 10033 20011 53050 $

VFR

1.7°C / -6.1°C

[Mais]
Vento 270º 15kt Gust 25kt
Visibilidade >10km
Tempo -
Nuvens Broken Clouds 4300ft
Overcast 5000ft
Pressão 994
Mudança -
Bruto KILG 172251Z 27015G25KT 10SM BKN043 OVC050 02/M06 A2938 RMK AO2 PK WND 28028/2155 SLP949 T00171061 $

VFR

2.2°C / -5.6°C

[Mais]
Vento 270º 17kt Gust 30kt
Visibilidade >10km
Tempo 0.25mm precipitation
Nuvens Scattered Clouds 4100ft
Broken Clouds 4900ft
Overcast 6000ft
Pressão 993
Mudança -
Bruto KILG 172151Z 27017G30KT 10SM SCT041 BKN049 OVC060 02/M06 A2933 RMK AO2 PK WND 27030/2148 SLP933 P0001 T00221056 $

VFR

2.8°C / -5.6°C

[Mais]
Vento 270º 15kt Gust 31kt
Visibilidade >10km
Tempo 1.27mm precipitation
Nuvens Few Clouds 3600ft
Overcast 4600ft
Pressão 991
Mudança -
Bruto KILG 172051Z 27015G31KT 10SM FEW036 OVC046 03/M06 A2928 RMK AO2 PK WND 25034/2041 SNE00B19E38 SLP917 P0005 60009 T00281056 51030 $

VFR

2.2°C / -3.3°C

[Mais]
Vento 240º 17kt Gust 27kt
Visibilidade 9700m
Tempo Light Snow 0.76mm precipitation
Nuvens Overcast 4500ft
Pressão 990
Mudança -
Bruto KILG 171951Z 24017G27KT 6SM -SN OVC045 02/M03 A2926 RMK AO2 PK WND 25029/1936 RAE1857B37E38SNB38 SLP908 P0003 T00221033 $

VFR

2.8°C / -3.9°C

[Mais]
Vento 250º 15kt Gust 28kt
Visibilidade >10km
Tempo Light Rain 0.25mm precipitation
Nuvens Broken Clouds 3900ft
Overcast 4700ft
Pressão 989
Mudança -
Bruto KILG 171851Z 25015G28KT 10SM -RA BKN039 OVC047 03/M04 A2922 RMK AO2 PK WND 27028/1846 RAB48 SLP894 P0001 T00281039 $

VFR

3.3°C / -3.9°C

[Mais]
Vento 250º 25kt Gust 32kt
Visibilidade >10km
Tempo -
Nuvens Broken Clouds 4000ft
Overcast 6000ft
Pressão 988
Mudança -
Bruto KILG 171751Z 25025G32KT 10SM BKN040 OVC060 03/M04 A2920 RMK AO2 PK WND 25032/1751 SLP886 60006 I6000 T00331039 10039 20017 51012 $

VFR

2.8°C / -3.3°C

[Mais]
Vento 240º 15kt Gust 25kt
Visibilidade >10km
Tempo -
Nuvens Few Clouds 3500ft
Overcast 4800ft
Pressão 988
Mudança -
Bruto KILG 171651Z 24015G25KT 10SM FEW035 OVC048 03/M03 A2919 RMK AO2 SLP885 T00281033 $

VFR

3.3°C / -1.7°C

[Mais]
Vento 250º 18kt Gust 23kt
Visibilidade >10km
Tempo -
Nuvens Few Clouds 2900ft
Overcast 4000ft
Pressão 988
Mudança -
Bruto KILG 171551Z 25018G23KT 10SM FEW029 OVC040 03/M02 A2918 RMK AO2 PK WND 25026/1506 SLP883 T00331017 $

VFR

2.8°C / -1.7°C

[Mais]
Vento 250º 15kt Gust 24kt
Visibilidade >10km
Tempo -
Nuvens Scattered Clouds 2900ft
Overcast 3800ft
Pressão
Mudança -
Bruto KILG 171539Z 25015G24KT 10SM SCT029 OVC038 03/M02 A2917 RMK AO2 PK WND 25026/1506 T00281017 $

MVFR

2.2°C / -1.1°C

[Mais]
Vento 240º 10kt Gust 25kt
Visibilidade >10km
Tempo -
Nuvens Overcast 2200ft
Pressão 987
Mudança -
Bruto KILG 171451Z 24010G25KT 10SM OVC022 02/M01 A2916 RMK AO2 PK WND 22027/1440 SLP875 60006 I3000 T00221011 52008 $

MVFR

1.7°C / -0.6°C

[Mais]
Vento 220º 12kt Gust 21kt
Visibilidade >10km
Tempo -
Nuvens Few Clouds 1000ft
Overcast 1600ft
Pressão
Mudança -
Bruto KILG 171358Z 22012G21KT 10SM FEW010 OVC016 02/M01 A2915 RMK AO2 T00171006 $

IFR

1.7°C / 0°C

[Mais]
Vento 220º variable 007º to 013º 14kt Gust 21kt
Visibilidade >10km
Tempo 0.76mm precipitation
Nuvens Broken Clouds 900ft
Overcast 1400ft
Pressão 987
Mudança -
Bruto KILG 171351Z 22014G21KT 10SM BKN009 OVC014 02/00 A2915 RMK AO2 UPB1254E00B09E14B27E31SNB00E09B14E27 CIG 007V013 SLP871 P0003 I1000 T00170000 $

IFR

1.7°C / 0°C

[Mais]
Vento 210º 14kt Gust 20kt
Visibilidade 8000m
Tempo Mist 0.76mm precipitation
Nuvens Broken Clouds 900ft
Overcast 1300ft
Pressão
Mudança -
Bruto KILG 171333Z 21014G20KT 5SM BR BKN009 OVC013 02/00 A2915 RMK AO2 UPB1254E00B09E14B27E31SNB00E09B14E27 P0003 I1000 T00170000 $

MVFR

1.7°C / -0.6°C

[Mais]
Vento 220º 15kt Gust 22kt
Visibilidade 6400m
Tempo Light Snow Mist 0.51mm precipitation
Nuvens Broken Clouds 1100ft
Overcast 1800ft
Pressão
Mudança -
Bruto KILG 171316Z 22015G22KT 4SM -SN BR BKN011 OVC018 02/M01 A2916 RMK AO2 UPB1254E00B09E14SNB00E09B14 P0002 I1000 T00171006 $

IFR

1.7°C / 0°C

[Mais]
Vento 200º variable 007º to 013º 12kt Gust 20kt
Visibilidade 8000m
Tempo Light Snow Mist 0.25mm precipitation
Nuvens Broken Clouds 900ft
Overcast 1500ft
Pressão
Mudança -
Bruto KILG 171307Z 20012G20KT 5SM -SN BR BKN009 OVC015 02/00 A2915 RMK AO2 UPB1254E00SNB00 CIG 007V013 P0001 I1000 T00170000 $

MVFR

1.7°C / 0°C

[Mais]
Vento 210º 11kt Gust 19kt
Visibilidade >10km
Tempo 0.76mm precipitation
Nuvens Scattered Clouds 900ft
Broken Clouds 1400ft
Overcast 3000ft
Pressão 986
Mudança -
Bruto KILG 171251Z 21011G19KT 10SM SCT009 BKN014 OVC030 02/00 A2914 RMK AO2 RAE33UPB26E45 SLP866 P0003 T00170000 $

TAF para Wilmington Manor (KILG)

From till


From till Wind 290º 16kt. Gust 26kt. Visibility 10km or more. Broken Clouds 5000ft.
From till Wind 290º 14kt. Gust 24kt. Visibility 10km or more. Scattered Clouds 5000ft. Broken Clouds 10000ft.
From till Wind 290º 15kt. Gust 25kt. Visibility 10km or more. Broken Clouds 5000ft.
From till Wind 280º 10kt. Visibility 10km or more. Broken Clouds 25000ft.
From till Wind 240º 5kt. Visibility 10km or more. Scattered Clouds 25000ft.

Bruto: KILG 180524Z 1806/1906 29016G26KT P6SM BKN050 FM181000 29014G24KT P6SM SCT050 BKN100 FM181500 29015G25KT P6SM BKN050 FM182200 28010KT P6SM BKN250 FM190200 24005KT P6SM SCT250

Radar e precipitação nowcast para Wilmington Manor

Chuvisco
Leve
Moderado
Forte
Muito forte
Granizo

O marcador do lugar é colocado em Wilmington Manor. Esta animação mostra o radar de precipitação para a última hora, assim como a 1h previsão. A queda de neve pode ser invisível para o radar. A intensidade da precipitação é codificada por cores, variando do azul claro ao laranja.

Imagens de satélite atuais para Wilmington Manor, EUA

O marcador de lugar é colocado em Wilmington Manor. [Mais]

A imagem de satélite em tempo real combina luz visível durante o dia com radiação infravermelha durante a noite. À noite, a imagem não é escura, pois a radiação infravermelha pode detectar diferenças de temperatura. Infelizmente, nuvens baixas e neblina são difíceis de distinguir das temperaturas do solo e, portanto, podem ser quase invisíveis durante a noite. As imagens de satélite Meteosat para a Europa são atualizadas em tempo real a cada 5 minutos. GOES-16/GOES-17 ( América do Norte e do Sul) e Himawari (Ásia) são atualizadas a cada 10 minutos.